METAR Data
IDs: Format: Raw Decoded Include TAF

Data at: 0842 UTC 13 Aug 2022

LFMH 130830Z AUTO VRB01KT CAVOK 27/08 Q1013